Time;durP1;ratioP1;P1;durP2;ratioP2;P2;SDS_P1;SDS_P2;PMS_P1;PMS_P2;Temp;Humidity;BMP_temperature;BMP_pressure;BME280_temperature;BME280_humidity;BME280_pressure;Samples;Min_cycle;Max_cycle;Signal;HPM_P1;HPM_P2
2021/08/29 00:02:02;;;;;;;11.25;5.28;;;16.60;57.50;;;;;;6251076;23;20331;-76
2021/08/29 00:04:27;;;;;;;12.43;4.90;;;16.60;57.60;;;;;;6251421;23;20454;-75
2021/08/29 00:06:53;;;;;;;15.23;6.47;;;16.60;58.00;;;;;;6251350;23;20435;-75
2021/08/29 00:09:19;;;;;;;10.25;4.45;;;16.60;57.80;;;;;;6250653;23;20007;-74
2021/08/29 00:11:45;;;;;;;13.27;5.40;;;16.50;57.80;;;;;;6251085;23;20015;-74
2021/08/29 00:14:10;;;;;;;15.43;5.78;;;16.50;59.70;;;;;;6251002;23;20075;-74
2021/08/29 00:16:36;;;;;;;13.65;5.90;;;16.50;58.80;;;;;;6250244;23;19996;-74
2021/08/29 00:19:03;;;;;;;14.15;6.68;;;16.50;60.10;;;;;;6251298;23;20031;-74
2021/08/29 00:21:28;;;;;;;22.08;7.97;;;16.50;60.90;;;;;;6251257;23;20024;-74
2021/08/29 00:23:54;;;;;;;20.40;7.60;;;16.50;60.30;;;;;;6251290;23;20007;-74
2021/08/29 00:26:21;;;;;;;22.27;11.18;;;16.40;59.40;;;;;;6251273;23;20011;-78
2021/08/29 00:28:46;;;;;;;27.52;11.50;;;16.40;59.00;;;;;;6223714;23;20050;-73
2021/08/29 00:31:12;;;;;;;31.48;13.82;;;16.40;58.60;;;;;;6251086;23;20046;-76
2021/08/29 00:33:38;;;;;;;31.33;14.27;;;16.30;58.40;;;;;;6251014;23;20011;-73
2021/08/29 00:36:04;;;;;;;29.50;13.93;;;16.30;58.40;;;;;;6251498;23;20001;-74
2021/08/29 00:38:30;;;;;;;27.38;11.73;;;16.30;58.60;;;;;;6250779;23;20352;-74
2021/08/29 00:40:55;;;;;;;24.98;10.35;;;16.30;58.40;;;;;;6250744;23;20082;-74
2021/08/29 00:43:22;;;;;;;19.15;8.20;;;16.20;58.20;;;;;;6251103;23;20012;-76
2021/08/29 00:45:49;;;;;;;14.77;6.85;;;16.20;58.30;;;;;;6250700;23;20006;-74
2021/08/29 00:48:15;;;;;;;15.70;7.43;;;16.20;58.20;;;;;;6250938;23;20004;-76
2021/08/29 00:50:45;;;;;;;17.73;7.22;;;16.20;59.90;;;;;;6223562;23;20008;-78
2021/08/29 00:53:17;;;;;;;14.20;7.50;;;16.20;61.80;;;;;;6224268;23;20446;-76
2021/08/29 00:55:43;;;;;;;16.08;6.97;;;16.10;61.50;;;;;;6251260;23;20032;-79
2021/08/29 00:58:09;;;;;;;14.60;7.80;;;16.10;63.80;;;;;;6250668;23;20043;-76
2021/08/29 01:00:41;;;;;;;17.02;7.20;;;16.10;68.50;;;;;;6223667;23;20036;-78
2021/08/29 01:03:15;;;;;;;15.70;7.10;;;16.10;67.20;;;;;;6250947;23;20083;-76
2021/08/29 01:05:48;;;;;;;17.67;8.23;;;16.10;65.20;;;;;;6224345;23;20078;-76
2021/08/29 01:08:17;;;;;;;20.42;8.00;;;16.00;69.60;;;;;;6250697;23;20051;-75
2021/08/29 01:11:05;;;;;;;19.50;8.32;;;16.00;66.70;;;;;;6251026;23;20031;-76
2021/08/29 01:13:33;;;;;;;19.10;7.22;;;16.00;69.60;;;;;;6250891;23;20004;-80
2021/08/29 01:16:03;;;;;;;19.83;7.40;;;15.90;68.60;;;;;;6250576;23;20055;-76
2021/08/29 01:18:30;;;;;;;23.60;7.80;;;15.90;68.70;;;;;;6224048;23;20000;-77
2021/08/29 01:21:18;;;;;;;21.38;8.60;;;15.90;70.40;;;;;;6250788;23;20001;-76
2021/08/29 01:23:47;;;;;;;19.75;8.25;;;15.80;69.90;;;;;;6250757;23;20005;-77
2021/08/29 01:26:25;;;;;;;22.05;9.52;;;15.90;68.00;;;;;;6250723;23;20008;-73
2021/08/29 01:28:56;;;;;;;18.02;8.18;;;15.80;68.60;;;;;;6250150;23;20000;-75
2021/08/29 01:31:25;;;;;;;23.35;8.95;;;15.80;66.60;;;;;;6250678;23;20004;-73
2021/08/29 01:33:51;;;;;;;16.23;7.68;;;15.70;68.90;;;;;;6250363;23;20000;-76
2021/08/29 01:36:19;;;;;;;18.30;7.43;;;15.70;66.20;;;;;;6250997;23;20054;-76
2021/08/29 01:38:46;;;;;;;15.90;7.93;;;15.70;64.30;;;;;;6250626;23;20007;-75
2021/08/29 01:41:15;;;;;;;19.67;8.25;;;15.70;63.40;;;;;;6250050;23;20513;-75
2021/08/29 01:43:42;;;;;;;19.50;9.13;;;15.60;62.90;;;;;;6249987;23;20087;-76
2021/08/29 01:46:09;;;;;;;18.63;8.48;;;15.60;63.90;;;;;;6250508;23;20047;-76
2021/08/29 01:48:39;;;;;;;22.95;9.50;;;15.60;64.90;;;;;;6250293;23;20071;-76
2021/08/29 01:51:06;;;;;;;20.75;9.32;;;15.60;65.50;;;;;;6250527;23;20335;-76
2021/08/29 01:53:31;;;;;;;17.88;9.15;;;15.60;64.50;;;;;;6250471;23;20313;-77
2021/08/29 01:55:57;;;;;;;19.75;9.05;;;15.50;64.20;;;;;;6250773;23;20004;-74
2021/08/29 01:58:23;;;;;;;19.60;9.70;;;15.50;66.30;;;;;;6250397;23;20000;-74
2021/08/29 02:00:53;;;;;;;17.83;9.32;;;15.50;67.80;;;;;;6250149;23;20083;-73
2021/08/29 02:03:20;;;;;;;17.63;7.88;;;15.50;66.50;;;;;;6250837;23;20439;-73
2021/08/29 02:05:48;;;;;;;16.52;8.25;;;15.50;64.40;;;;;;6250532;23;20005;-75
2021/08/29 02:08:16;;;;;;;20.08;9.02;;;15.40;69.40;;;;;;6250604;23;20007;-75
2021/08/29 02:10:48;;;;;;;19.67;9.07;;;15.40;69.00;;;;;;6223810;23;20014;-76
2021/08/29 02:13:15;;;;;;;23.70;9.57;;;15.40;68.40;;;;;;6250108;23;20004;-73
2021/08/29 02:15:58;;;;;;;20.02;9.15;;;15.40;68.10;;;;;;6250415;23;20004;-74
2021/08/29 02:18:25;;;;;;;18.10;8.30;;;15.30;68.00;;;;;;6223944;23;20008;-75
2021/08/29 02:20:52;;;;;;;21.00;8.70;;;15.30;66.40;;;;;;6250247;23;20432;-75
2021/08/29 02:23:21;;;;;;;20.05;8.45;;;15.30;66.50;;;;;;6249748;23;20043;-75
2021/08/29 02:25:48;;;;;;;21.70;8.82;;;15.30;65.60;;;;;;6250520;23;20058;-75
2021/08/29 02:28:15;;;;;;;20.17;8.63;;;15.30;65.90;;;;;;6252176;23;20012;-75
2021/08/29 02:30:42;;;;;;;17.58;8.30;;;15.20;64.70;;;;;;6251521;23;20000;-75
2021/08/29 02:33:11;;;;;;;18.25;9.15;;;15.20;63.60;;;;;;6252460;23;20034;-75
2021/08/29 02:35:40;;;;;;;20.48;8.98;;;15.20;64.30;;;;;;6226581;23;20082;-75
2021/08/29 02:38:06;;;;;;;19.65;9.38;;;15.10;64.40;;;;;;6252511;23;20004;-75
2021/08/29 02:40:36;;;;;;;19.50;9.00;;;15.10;66.20;;;;;;6251966;23;20004;-74
2021/08/29 02:43:02;;;;;;;21.17;9.88;;;15.10;66.00;;;;;;6251583;23;20332;-74
2021/08/29 02:45:29;;;;;;;23.55;10.57;;;15.10;67.90;;;;;;6250185;23;20432;-76
2021/08/29 02:47:55;;;;;;;27.85;12.10;;;15.10;65.80;;;;;;6252317;23;19996;-77
2021/08/29 02:50:23;;;;;;;23.75;10.68;;;15.00;65.40;;;;;;6252087;23;19996;-76
2021/08/29 02:52:49;;;;;;;25.85;10.45;;;15.00;67.90;;;;;;6252258;23;20024;-82
2021/08/29 02:55:17;;;;;;;21.35;9.63;;;15.00;65.60;;;;;;6252353;23;20045;-77
2021/08/29 02:57:46;;;;;;;20.55;9.80;;;15.00;66.20;;;;;;6252215;23;20003;-76
2021/08/29 03:00:13;;;;;;;19.70;8.85;;;15.00;67.50;;;;;;6251981;23;19996;-74
2021/08/29 03:02:41;;;;;;;20.45;8.70;;;14.90;65.80;;;;;;6251350;23;20119;-75
2021/08/29 03:05:08;;;;;;;19.15;9.25;;;14.90;65.50;;;;;;6252349;23;20000;-73
2021/08/29 03:07:35;;;;;;;19.30;8.55;;;14.90;65.50;;;;;;6251974;23;20000;-72
2021/08/29 03:10:01;;;;;;;18.80;8.70;;;14.90;64.80;;;;;;6252088;23;20010;-78
2021/08/29 03:12:27;;;;;;;19.73;9.57;;;14.90;65.10;;;;;;6252021;23;20008;-74
2021/08/29 03:14:54;;;;;;;14.93;7.55;;;14.90;66.00;;;;;;6224322;23;20427;-72
2021/08/29 03:17:21;;;;;;;19.88;8.73;;;14.80;64.70;;;;;;6251514;23;20004;-73
2021/08/29 03:19:50;;;;;;;17.35;7.97;;;14.80;64.80;;;;;;6251617;23;20076;-75
2021/08/29 03:22:17;;;;;;;17.92;7.90;;;14.80;64.00;;;;;;6251859;23;19996;-74
2021/08/29 03:24:43;;;;;;;18.08;7.05;;;14.80;64.40;;;;;;6251100;23;20070;-74
2021/08/29 03:27:10;;;;;;;18.95;9.15;;;14.70;63.60;;;;;;6251009;23;20015;-75
2021/08/29 03:29:35;;;;;;;15.73;7.80;;;14.70;69.00;;;;;;6251197;23;20027;-76
2021/08/29 03:32:01;;;;;;;23.60;8.45;;;14.70;66.00;;;;;;6251972;23;20027;-75
2021/08/29 03:34:28;;;;;;;17.85;7.75;;;14.70;64.90;;;;;;6224857;23;20078;-75
2021/08/29 03:36:55;;;;;;;16.90;8.15;;;14.70;65.50;;;;;;6251445;23;19997;-75
2021/08/29 03:39:25;;;;;;;17.33;9.27;;;14.70;64.00;;;;;;6250799;23;20052;-75
2021/08/29 03:41:55;;;;;;;19.95;8.60;;;14.70;67.40;;;;;;6251204;23;20012;-75
2021/08/29 03:44:21;;;;;;;21.98;8.40;;;14.60;65.20;;;;;;6251026;23;20014;-73
2021/08/29 03:46:47;;;;;;;17.27;8.38;;;14.60;64.30;;;;;;6250315;23;20463;-76
2021/08/29 03:49:13;;;;;;;15.35;7.70;;;14.60;63.60;;;;;;6251868;23;20007;-73
2021/08/29 03:51:41;;;;;;;16.00;7.72;;;14.60;63.10;;;;;;6251090;23;20443;-75
2021/08/29 03:54:08;;;;;;;21.08;8.10;;;14.50;62.80;;;;;;6251415;23;20011;-74
2021/08/29 03:56:35;;;;;;;20.55;7.90;;;14.50;64.80;;;;;;6251630;23;19996;-74
2021/08/29 03:59:01;;;;;;;16.60;7.60;;;14.50;65.10;;;;;;6251750;23;20004;-76
2021/08/29 04:01:27;;;;;;;16.75;8.32;;;14.50;65.80;;;;;;6251169;23;20007;-74
2021/08/29 04:03:54;;;;;;;18.48;8.70;;;14.50;68.60;;;;;;6251226;23;20004;-78
2021/08/29 04:06:20;;;;;;;21.80;11.18;;;14.50;69.90;;;;;;6250879;23;20016;-78
2021/08/29 04:08:49;;;;;;;21.70;10.05;;;14.50;72.30;;;;;;6251367;23;20332;-78
2021/08/29 04:11:21;;;;;;;25.15;10.60;;;14.50;72.00;;;;;;6251575;23;20027;-78
2021/08/29 04:13:47;;;;;;;25.52;10.50;;;14.40;72.30;;;;;;6251197;23;20004;-78
2021/08/29 04:16:13;;;;;;;23.65;9.10;;;14.40;70.40;;;;;;6251383;23;20000;-78
2021/08/29 04:18:44;;;;;;;18.38;9.20;;;14.40;68.00;;;;;;6224189;23;20000;-78
2021/08/29 04:21:11;;;;;;;17.50;9.38;;;14.40;68.30;;;;;;6250792;23;20001;-78
2021/08/29 04:23:38;;;;;;;17.05;8.23;;;14.30;67.40;;;;;;6251605;23;20079;-77
2021/08/29 04:26:05;;;;;;;21.52;9.60;;;14.30;68.30;;;;;;6251486;23;20027;-77
2021/08/29 04:28:30;;;;;;;18.40;9.15;;;14.30;70.60;;;;;;6251428;23;20004;-77
2021/08/29 04:31:00;;;;;;;23.55;9.73;;;14.30;70.40;;;;;;6251081;23;20008;-76
2021/08/29 04:33:26;;;;;;;22.70;10.27;;;14.30;74.10;;;;;;6251291;23;20008;-78
2021/08/29 04:35:53;;;;;;;22.15;9.88;;;14.20;74.50;;;;;;6251593;23;19996;-78
2021/08/29 04:38:19;;;;;;;23.10;10.40;;;14.20;72.90;;;;;;6251254;23;20003;-77
2021/08/29 04:40:46;;;;;;;20.40;9.45;;;14.20;73.30;;;;;;6251029;23;19996;-80
2021/08/29 04:43:12;;;;;;;19.55;9.50;;;14.20;74.70;;;;;;6251569;23;20000;-79
2021/08/29 04:45:37;;;;;;;19.83;9.02;;;14.10;73.30;;;;;;6250976;23;20052;-77
2021/08/29 04:48:04;;;;;;;19.33;9.98;;;14.10;71.30;;;;;;6224042;23;20479;-78
2021/08/29 04:50:30;;;;;;;23.40;9.52;;;14.10;74.10;;;;;;6251173;23;20000;-78
2021/08/29 04:52:56;;;;;;;23.70;9.20;;;14.10;71.70;;;;;;6251067;23;19996;-78
2021/08/29 04:55:22;;;;;;;16.88;8.88;;;14.10;70.30;;;;;;6251003;23;19996;-82
2021/08/29 04:57:48;;;;;;;20.65;9.20;;;14.10;72.40;;;;;;6250935;23;20067;-83
2021/08/29 05:00:14;;;;;;;22.63;9.82;;;14.10;72.70;;;;;;6250912;23;20003;-80
2021/08/29 05:02:40;;;;;;;21.13;9.55;;;14.00;71.60;;;;;;6251051;23;19996;-82
2021/08/29 05:05:06;;;;;;;18.55;8.23;;;14.00;70.00;;;;;;6250665;23;20146;-82
2021/08/29 05:07:32;;;;;;;24.25;10.07;;;14.00;71.10;;;;;;6250934;23;20031;-82
2021/08/29 05:09:58;;;;;;;18.95;9.00;;;14.00;73.50;;;;;;6251000;23;20015;-82
2021/08/29 05:12:24;;;;;;;21.17;9.05;;;14.00;70.60;;;;;;6250883;23;20000;-82
2021/08/29 05:14:50;;;;;;;17.90;9.15;;;14.00;71.00;;;;;;6250502;23;20050;-83
2021/08/29 05:17:16;;;;;;;20.45;9.05;;;13.90;69.50;;;;;;6250770;23;19996;-82
2021/08/29 05:19:42;;;;;;;20.23;8.18;;;13.90;68.00;;;;;;6250219;23;20007;-82
2021/08/29 05:22:08;;;;;;;18.13;7.10;;;13.90;67.60;;;;;;6251033;23;20084;-82
2021/08/29 05:24:34;;;;;;;17.20;8.98;;;13.90;69.60;;;;;;6250666;23;20071;-82
2021/08/29 05:27:00;;;;;;;18.65;8.63;;;13.90;72.00;;;;;;6249901;23;20012;-78
2021/08/29 05:29:25;;;;;;;19.73;8.63;;;13.90;70.90;;;;;;6250658;23;20004;-78
2021/08/29 05:31:51;;;;;;;18.42;8.60;;;13.90;71.70;;;;;;6250790;23;20374;-78
2021/08/29 05:34:17;;;;;;;22.88;8.65;;;13.90;71.80;;;;;;6250877;23;20077;-78
2021/08/29 05:36:43;;;;;;;24.10;9.45;;;13.80;71.20;;;;;;6250691;23;20064;-78
2021/08/29 05:39:09;;;;;;;23.00;9.93;;;13.80;72.30;;;;;;6250790;23;19996;-78
2021/08/29 05:41:34;;;;;;;22.75;10.75;;;13.80;73.70;;;;;;6250641;23;20351;-77
2021/08/29 05:44:00;;;;;;;20.20;9.25;;;13.80;75.20;;;;;;6250729;23;20011;-78
2021/08/29 05:46:26;;;;;;;23.42;10.68;;;13.80;76.30;;;;;;6250582;23;19999;-78
2021/08/29 05:48:53;;;;;;;24.30;9.95;;;13.80;75.60;;;;;;6250566;23;20047;-77
2021/08/29 05:51:20;;;;;;;22.40;10.80;;;13.80;75.80;;;;;;6250116;23;20000;-78
2021/08/29 05:53:45;;;;;;;23.05;10.32;;;13.80;75.00;;;;;;6250453;23;20091;-78
2021/08/29 05:56:12;;;;;;;22.85;10.10;;;13.80;76.80;;;;;;6250307;23;20054;-78
2021/08/29 05:58:37;;;;;;;20.77;10.63;;;13.80;76.90;;;;;;6248852;23;20079;-78
2021/08/29 06:01:03;;;;;;;19.15;8.98;;;13.80;77.40;;;;;;6251609;23;19996;-78
2021/08/29 06:03:31;;;;;;;24.48;10.27;;;13.80;77.30;;;;;;6252589;23;20008;-78
2021/08/29 06:05:58;;;;;;;20.00;9.05;;;13.80;78.00;;;;;;6252797;23;20321;-78
2021/08/29 06:08:24;;;;;;;23.80;9.65;;;13.80;73.80;;;;;;6252997;23;20008;-78
2021/08/29 06:10:49;;;;;;;26.35;11.40;;;13.80;76.70;;;;;;6252575;23;20011;-79
2021/08/29 06:13:15;;;;;;;19.08;8.68;;;13.90;79.00;;;;;;6252828;23;19996;-79
2021/08/29 06:15:41;;;;;;;23.40;9.40;;;13.90;78.40;;;;;;6225465;23;20005;-78
2021/08/29 06:18:08;;;;;;;20.88;8.45;;;13.90;76.40;;;;;;6252894;23;19996;-78
2021/08/29 06:20:33;;;;;;;17.63;7.95;;;13.90;73.20;;;;;;6251881;23;20000;-78
2021/08/29 06:22:59;;;;;;;19.45;8.43;;;13.90;72.50;;;;;;6252423;23;20009;-79
2021/08/29 06:25:25;;;;;;;17.00;8.25;;;13.90;73.90;;;;;;6252521;23;20420;-78
2021/08/29 06:27:51;;;;;;;23.23;9.60;;;13.90;73.20;;;;;;6225435;23;20095;-78
2021/08/29 06:30:16;;;;;;;25.35;9.07;;;14.00;76.10;;;;;;6251708;23;20114;-78
2021/08/29 06:32:42;;;;;;;22.13;9.25;;;14.00;76.90;;;;;;6252912;23;20297;-78
2021/08/29 06:35:09;;;;;;;23.67;9.60;;;14.00;75.20;;;;;;6252338;23;20001;-78
2021/08/29 06:37:34;;;;;;;19.05;8.88;;;14.00;78.50;;;;;;6252168;23;20027;-78
2021/08/29 06:40:00;;;;;;;19.85;8.80;;;14.10;77.00;;;;;;6225119;23;20004;-78
2021/08/29 06:42:26;;;;;;;22.70;9.75;;;14.10;76.40;;;;;;6252151;23;20019;-78
2021/08/29 06:44:52;;;;;;;18.85;8.65;;;14.10;77.40;;;;;;6252040;23;20012;-79
2021/08/29 06:47:17;;;;;;;21.98;9.55;;;14.10;77.80;;;;;;6252277;23;20004;-78
2021/08/29 06:49:43;;;;;;;20.15;8.73;;;14.20;77.80;;;;;;6252058;23;20007;-79
2021/08/29 06:52:09;;;;;;;21.70;8.75;;;14.20;77.20;;;;;;6225348;23;20012;-78
2021/08/29 06:54:35;;;;;;;20.50;8.50;;;14.30;78.90;;;;;;6251908;23;20000;-78
2021/08/29 06:57:00;;;;;;;21.05;8.30;;;14.20;76.70;;;;;;6252167;23;19996;-78
2021/08/29 06:59:26;;;;;;;15.82;8.15;;;14.30;75.80;;;;;;6252331;23;20001;-78
2021/08/29 07:01:52;;;;;;;15.45;6.82;;;14.30;73.70;;;;;;6251802;23;20031;-78
2021/08/29 07:04:18;;;;;;;16.25;7.03;;;14.30;72.60;;;;;;6252332;23;20027;-78
2021/08/29 07:06:44;;;;;;;16.83;7.90;;;14.40;72.00;;;;;;6251524;23;20004;-78
2021/08/29 07:09:09;;;;;;;13.35;6.55;;;14.40;71.20;;;;;;6252205;23;20058;-78
2021/08/29 07:11:35;;;;;;;20.65;7.15;;;14.50;71.00;;;;;;6251976;23;20063;-79
2021/08/29 07:14:01;;;;;;;19.65;7.32;;;14.60;71.90;;;;;;6225317;23;20004;-79
2021/08/29 07:16:27;;;;;;;13.82;6.60;;;14.70;71.50;;;;;;6251494;23;20012;-79
2021/08/29 07:18:53;;;;;;;16.65;6.90;;;14.70;71.30;;;;;;6251470;23;20000;-78
2021/08/29 07:21:19;;;;;;;20.60;7.43;;;14.80;72.90;;;;;;6252086;23;19996;-78
2021/08/29 07:23:44;;;;;;;21.77;8.65;;;14.90;73.40;;;;;;6252363;23;20054;-78
2021/08/29 07:26:13;;;;;;;22.75;7.57;;;15.00;73.30;;;;;;6251983;23;20026;-77
2021/08/29 07:28:43;;;;;;;17.17;6.82;;;15.20;74.40;;;;;;6251338;23;20000;-78
2021/08/29 07:31:10;;;;;;;16.38;6.55;;;15.50;76.50;;;;;;6225202;23;20012;-78
2021/08/29 07:33:36;;;;;;;27.25;7.75;;;15.80;77.60;;;;;;6225288;23;20130;-79
2021/08/29 07:36:02;;;;;;;18.60;7.13;;;16.20;79.00;;;;;;6225061;23;20000;-79
2021/08/29 07:38:28;;;;;;;17.30;5.38;;;16.50;78.60;;;;;;6251486;23;20023;-78
2021/08/29 07:40:54;;;;;;;18.20;6.35;;;16.70;78.50;;;;;;6224470;23;20403;-78
2021/08/29 07:43:19;;;;;;;17.08;5.95;;;17.00;77.90;;;;;;6252374;23;20008;-77
2021/08/29 07:45:45;;;;;;;18.35;6.10;;;17.20;77.50;;;;;;6251351;23;20007;-77
2021/08/29 07:48:11;;;;;;;19.92;6.28;;;17.40;77.00;;;;;;6251564;23;20000;-77
2021/08/29 07:50:37;;;;;;;17.92;5.90;;;17.60;77.10;;;;;;6251312;23;20004;-77
2021/08/29 07:53:03;;;;;;;16.20;5.47;;;17.80;76.40;;;;;;6251671;23;20000;-77
2021/08/29 07:55:30;;;;;;;18.23;5.50;;;17.90;76.70;;;;;;6251710;23;19992;-77
2021/08/29 07:57:56;;;;;;;19.70;5.95;;;18.20;76.30;;;;;;6251482;23;20417;-76
2021/08/29 08:00:21;;;;;;;17.33;6.07;;;18.40;76.10;;;;;;6251414;23;20046;-76
2021/08/29 08:02:47;;;;;;;15.85;5.38;;;18.70;75.10;;;;;;6251110;23;19996;-76
2021/08/29 08:05:13;;;;;;;15.80;5.80;;;18.90;74.90;;;;;;6251569;23;20428;-76
2021/08/29 08:07:39;;;;;;;13.68;5.15;;;19.10;75.00;;;;;;6251454;23;20537;-76
2021/08/29 08:10:06;;;;;;;16.55;5.20;;;19.40;75.40;;;;;;6251499;23;20011;-77
2021/08/29 08:12:31;;;;;;;13.20;4.85;;;19.70;75.10;;;;;;6251457;23;20424;-77
2021/08/29 08:14:57;;;;;;;18.67;5.35;;;20.00;73.50;;;;;;6250968;23;20028;-77
2021/08/29 08:17:23;;;;;;;13.35;4.78;;;20.30;73.30;;;;;;6251586;23;19996;-77
2021/08/29 08:19:49;;;;;;;20.23;4.78;;;20.60;72.90;;;;;;6251045;23;20058;-76
2021/08/29 08:22:16;;;;;;;13.07;4.95;;;20.90;71.60;;;;;;6250289;23;20079;-77
2021/08/29 08:24:42;;;;;;;17.65;4.90;;;21.20;71.60;;;;;;6251142;23;20000;-77
2021/08/29 08:27:08;;;;;;;17.35;5.40;;;21.40;71.00;;;;;;6250946;23;20403;-77
2021/08/29 08:29:33;;;;;;;12.27;5.03;;;21.60;70.30;;;;;;6224054;23;20032;-77
2021/08/29 08:31:59;;;;;;;13.70;4.88;;;21.80;70.70;;;;;;6251124;23;20004;-76
2021/08/29 08:34:25;;;;;;;14.43;4.25;;;22.00;71.80;;;;;;6251444;23;20019;-77
2021/08/29 08:36:51;;;;;;;17.70;4.78;;;22.40;69.70;;;;;;6251173;23;20004;-77
2021/08/29 08:39:17;;;;;;;16.25;5.32;;;22.70;68.70;;;;;;6251128;23;20007;-76
2021/08/29 08:41:42;;;;;;;13.35;4.85;;;23.00;65.70;;;;;;6250744;23;20013;-77
2021/08/29 08:44:08;;;;;;;10.63;4.00;;;23.20;66.80;;;;;;6250880;23;20548;-77
2021/08/29 08:46:34;;;;;;;14.35;4.35;;;23.50;67.90;;;;;;6251119;23;20020;-77
2021/08/29 08:49:02;;;;;;;13.05;4.63;;;23.80;67.50;;;;;;6251176;23;20012;-77
2021/08/29 08:51:29;;;;;;;11.73;4.50;;;24.20;68.90;;;;;;6250445;23;20004;-74
2021/08/29 08:53:58;;;;;;;13.95;4.50;;;24.60;68.40;;;;;;6250366;23;20008;-74
2021/08/29 08:56:25;;;;;;;12.27;3.78;;;25.00;65.30;;;;;;6251033;23;20050;-75
2021/08/29 08:58:55;;;;;;;18.67;4.43;;;25.40;67.40;;;;;;6250816;23;20050;-75
2021/08/29 09:01:21;;;;;;;14.90;4.15;;;25.70;67.10;;;;;;6251089;23;20392;-75
2021/08/29 09:03:48;;;;;;;11.65;3.50;;;26.10;65.10;;;;;;6250861;23;20000;-74
2021/08/29 09:06:13;;;;;;;16.63;3.95;;;26.50;63.10;;;;;;6250775;23;20138;-74
2021/08/29 09:08:40;;;;;;;11.98;4.18;;;26.70;62.60;;;;;;6249782;23;20000;-74
2021/08/29 09:11:06;;;;;;;12.18;3.78;;;26.70;61.30;;;;;;6249350;23;20050;-74
2021/08/29 09:13:47;;;;;;;10.68;3.53;;;26.90;59.40;;;;;;6250453;23;20004;-74
2021/08/29 09:16:18;;;;;;;12.57;3.88;;;27.20;62.10;;;;;;6223884;23;20000;-78
2021/08/29 09:18:48;;;;;;;11.52;3.72;;;27.50;62.80;;;;;;6250022;23;20053;-77
2021/08/29 09:21:29;;;;;;;11.15;4.70;;;27.80;60.90;;;;;;6250783;23;19996;-72
2021/08/29 09:23:57;;;;;;;11.75;3.88;;;28.10;58.90;;;;;;6250475;23;20075;-74
2021/08/29 09:26:25;;;;;;;11.07;3.55;;;28.20;58.90;;;;;;6250685;23;20095;-74
2021/08/29 09:28:54;;;;;;;8.68;3.28;;;28.20;57.70;;;;;;6250658;23;20027;-74
2021/08/29 09:31:19;;;;;;;11.38;3.30;;;28.00;57.40;;;;;;6250933;23;20023;-74
2021/08/29 09:34:02;;;;;;;10.63;3.38;;;28.00;57.90;;;;;;6223808;23;20339;-74
2021/08/29 09:36:34;;;;;;;10.85;3.85;;;28.00;55.60;;;;;;6250806;23;20074;-74
2021/08/29 09:39:21;;;;;;;25.92;4.75;;;28.00;55.30;;;;;;6250827;23;20000;-74
2021/08/29 09:41:47;;;;;;;12.65;3.33;;;27.80;53.70;;;;;;6223702;23;20138;-72
2021/08/29 09:44:18;;;;;;;13.07;3.83;;;27.70;53.70;;;;;;6250730;23;20078;-72
2021/08/29 09:47:03;;;;;;;14.25;4.03;;;27.70;54.40;;;;;;6250755;23;20075;-74
2021/08/29 09:49:35;;;;;;;11.88;3.80;;;27.90;53.80;;;;;;6250898;23;20498;-77
2021/08/29 09:52:04;;;;;;;8.50;3.40;;;27.80;52.10;;;;;;6224486;23;20008;-73
2021/08/29 09:54:34;;;;;;;7.88;3.17;;;27.60;52.70;;;;;;6223995;23;20035;-78
2021/08/29 09:57:05;;;;;;;10.55;3.72;;;27.60;51.30;;;;;;6224495;23;20028;-74
2021/08/29 09:59:50;;;;;;;12.73;3.80;;;27.60;52.90;;;;;;6250973;23;20335;-71
2021/08/29 10:02:22;;;;;;;13.82;3.42;;;27.50;51.60;;;;;;6250857;23;20000;-72
2021/08/29 10:04:48;;;;;;;10.27;4.40;;;27.50;51.90;;;;;;6250922;23;20004;-72
2021/08/29 10:07:17;;;;;;;12.35;5.32;;;27.70;52.90;;;;;;6250979;23;20006;-73
2021/08/29 10:09:45;;;;;;;13.68;4.45;;;28.00;53.60;;;;;;6250807;23;19996;-73
2021/08/29 10:12:12;;;;;;;9.95;4.00;;;28.20;49.30;;;;;;6250805;23;20008;-73
2021/08/29 10:14:41;;;;;;;12.10;4.05;;;28.10;49.80;;;;;;6224035;23;20012;-74
2021/08/29 10:17:08;;;;;;;8.60;3.58;;;28.00;49.20;;;;;;6250603;23;19996;-74
2021/08/29 10:19:37;;;;;;;13.50;3.35;;;27.80;47.20;;;;;;6250715;23;20008;-77
2021/08/29 10:22:03;;;;;;;9.50;3.70;;;27.60;48.20;;;;;;6250804;23;20494;-75
2021/08/29 10:24:32;;;;;;;9.50;3.60;;;27.30;47.70;;;;;;6250951;23;20336;-77
2021/08/29 10:27:12;;;;;;;10.10;3.42;;;27.10;48.90;;;;;;6250872;23;20004;-76
2021/08/29 10:29:49;;;;;;;7.45;3.35;;;26.80;49.90;;;;;;6250549;23;20423;-74
2021/08/29 10:32:27;;;;;;;10.32;3.50;;;26.80;50.60;;;;;;6223244;23;20448;-74
2021/08/29 10:34:54;;;;;;;8.60;3.35;;;27.00;52.40;;;;;;6250528;23;20005;-76
2021/08/29 10:37:21;;;;;;;8.93;3.25;;;27.40;52.40;;;;;;6223951;23;20026;-72
2021/08/29 10:39:49;;;;;;;9.02;3.80;;;27.90;52.20;;;;;;6223969;23;20024;-75
2021/08/29 10:42:21;;;;;;;6.95;2.72;;;28.30;50.70;;;;;;6249838;23;20008;-75
2021/08/29 10:44:48;;;;;;;10.90;3.40;;;28.70;48.90;;;;;;6250342;23;20055;-75
2021/08/29 10:47:16;;;;;;;13.27;3.50;;;28.90;50.30;;;;;;6251574;23;20034;-74
2021/08/29 10:49:43;;;;;;;9.75;3.15;;;29.10;49.60;;;;;;6252252;23;20053;-74
2021/08/29 10:52:09;;;;;;;10.90;3.75;;;29.00;49.60;;;;;;6252176;23;20038;-74
2021/08/29 10:54:49;;;;;;;10.80;4.05;;;28.90;48.60;;;;;;6251995;23;20332;-74
2021/08/29 10:57:38;;;;;;;13.38;3.90;;;28.80;49.20;;;;;;6251902;23;20051;-74
2021/08/29 11:00:10;;;;;;;11.05;3.92;;;28.90;48.60;;;;;;6252250;23;20335;-74
2021/08/29 11:02:39;;;;;;;;;;;29.00;48.60;;;;;;6252839;23;20000;-74
2021/08/29 11:05:08;;;;;;;10.02;3.28;;;29.10;49.50;;;;;;6252458;23;19900;-75
2021/08/29 11:07:46;;;;;;;10.30;4.05;;;29.30;48.70;;;;;;6251947;23;20000;-74
2021/08/29 11:10:34;;;;;;;10.57;4.35;;;29.30;47.70;;;;;;6252075;23;20008;-75
2021/08/29 11:13:19;;;;;;;17.30;6.03;;;29.10;46.70;;;;;;6226363;23;20158;-74
2021/08/29 11:15:45;;;;;;;11.77;4.45;;;29.00;48.20;;;;;;6224795;23;20012;-74
2021/08/29 11:18:11;;;;;;;11.38;4.07;;;29.00;47.20;;;;;;6252024;23;20424;-78
2021/08/29 11:20:40;;;;;;;13.70;6.22;;;28.90;48.70;;;;;;6252106;23;20058;-75
2021/08/29 11:23:06;;;;;;;9.35;3.85;;;29.00;48.60;;;;;;6251744;23;20332;-73
2021/08/29 11:25:31;;;;;;;12.00;4.35;;;29.00;48.20;;;;;;6251568;23;20015;-73
2021/08/29 11:28:06;;;;;;;11.20;4.43;;;28.80;45.70;;;;;;6251643;23;20004;-72
2021/08/29 11:30:35;;;;;;;24.65;11.00;;;28.50;46.10;;;;;;6251416;23;20447;-72
2021/08/29 11:33:02;;;;;;;13.10;5.70;;;28.20;46.40;;;;;;6251650;23;20075;-75
2021/08/29 11:35:31;;;;;;;11.65;3.80;;;27.90;47.10;;;;;;6224713;23;20055;-74
2021/08/29 11:38:02;;;;;;;13.73;4.38;;;27.90;46.70;;;;;;6251979;23;20031;-74
2021/08/29 11:40:59;;;;;;;9.88;4.63;;;28.10;47.00;;;;;;6252016;23;20065;-74
2021/08/29 11:43:28;;;;;;;9.75;3.45;;;28.30;48.00;;;;;;6222064;23;20059;-74
2021/08/29 11:46:19;;;;;;;8.38;2.63;;;28.60;46.50;;;;;;6251938;23;19996;-74
2021/08/29 11:48:54;;;;;;;11.10;3.50;;;28.80;47.40;;;;;;6252182;23;20004;-72
2021/08/29 11:51:29;;;;;;;15.05;5.47;;;28.70;47.10;;;;;;6252023;23;20011;-73
2021/08/29 11:53:55;;;;;;;13.80;5.53;;;28.60;47.20;;;;;;6251444;23;20055;-73
2021/08/29 11:56:30;;;;;;;17.00;5.57;;;28.30;46.30;;;;;;6251642;23;20007;-73
2021/08/29 11:59:00;;;;;;;15.00;4.40;;;28.00;45.70;;;;;;6225155;23;20019;-73
2021/08/29 12:01:27;;;;;;;13.45;3.47;;;27.90;47.30;;;;;;6224972;23;20004;-74
2021/08/29 12:03:58;;;;;;;10.13;3.47;;;27.90;47.70;;;;;;6252041;23;20323;-73
2021/08/29 12:06:40;;;;;;;11.60;4.18;;;28.10;48.30;;;;;;6251688;23;20005;-74
2021/08/29 12:09:05;;;;;;;;;;;28.40;48.90;;;;;;6252058;23;20053;-74
2021/08/29 12:11:36;;;;;;;9.00;3.38;;;28.60;45.80;;;;;;6251451;23;19903;-73
2021/08/29 12:14:17;;;;;;;10.52;3.70;;;28.60;46.60;;;;;;6251187;23;20000;-73
2021/08/29 12:16:55;;;;;;;9.57;3.30;;;28.40;45.80;;;;;;6251619;23;20022;-74
2021/08/29 12:19:35;;;;;;;7.45;3.00;;;28.30;46.30;;;;;;6251801;23;20418;-74
2021/08/29 12:22:03;;;;;;;9.38;2.92;;;28.20;46.40;;;;;;6251624;23;20007;-74
2021/08/29 12:24:31;;;;;;;14.70;3.38;;;28.00;46.50;;;;;;6251623;23;20011;-73
2021/08/29 12:27:09;;;;;;;8.75;3.60;;;27.80;46.30;;;;;;6250883;23;20004;-74
2021/08/29 12:29:43;;;;;;;11.82;3.40;;;27.60;46.90;;;;;;6251496;23;20007;-74
2021/08/29 12:32:12;;;;;;;8.25;2.78;;;27.50;47.40;;;;;;6251420;23;20439;-74
2021/08/29 12:34:39;;;;;;;11.52;3.05;;;27.50;47.10;;;;;;6251269;23;20031;-74
2021/08/29 12:37:07;;;;;;;8.93;3.20;;;27.60;46.90;;;;;;6251359;23;20023;-73
2021/08/29 12:39:33;;;;;;;9.38;3.10;;;27.70;48.00;;;;;;6251106;23;20000;-73
2021/08/29 12:42:20;;;;;;;7.57;2.72;;;27.80;47.80;;;;;;6250896;23;20439;-73
2021/08/29 12:44:47;;;;;;;9.25;2.88;;;27.90;47.00;;;;;;6251267;23;20007;-73